Nambucca Heads, Australia
Current Conditions -  °F | °C
As of 6:30 PM on Saturday 01 Nov 2014 (Local Time) from YCFS Reporting Station
Clear Clear  
Wind Chill: 79°   Ceiling: Unl
Heat Index: 81°   Visibility: 6mi
Dew Point: 64°   Wind: 14mph
Humidity: 61%   Direction: 20°NNE
Pressure: 29.62"   Gusts: NA
Location:  30.64°S, 153°E
Report Text: YCFS 010730Z AUTO 02012KT 9999 // NCD 26/18 Q1003
Loading
Personal Weather Stations






























Interactive Weather Map New forecast layout! Learn more

10-Day Weather Forecast

Advertisements
Track Severe Weather on mobile